createdAt,value
2023-05-08T00:00:43.467Z,33.39
2023-05-08T00:01:43.455Z,33.38
2023-05-08T00:02:43.508Z,33.42
2023-05-08T00:03:43.596Z,33.39
2023-05-08T00:04:43.454Z,33.41
2023-05-08T00:05:43.440Z,33.41
2023-05-08T00:06:43.434Z,33.44
2023-05-08T00:07:43.456Z,33.43
2023-05-08T00:08:43.467Z,33.39
2023-05-08T00:09:43.436Z,33.41
2023-05-08T00:10:43.450Z,33.43
2023-05-08T00:11:43.484Z,33.40
2023-05-08T00:12:43.609Z,33.44
2023-05-08T00:13:43.443Z,33.44
2023-05-08T00:14:43.476Z,33.47
2023-05-08T00:15:43.466Z,33.47
2023-05-08T00:16:44.095Z,33.46
2023-05-08T00:17:43.553Z,33.46
2023-05-08T00:18:43.506Z,33.43
2023-05-08T00:19:43.489Z,33.48
2023-05-08T00:20:43.495Z,33.44
2023-05-08T00:21:43.488Z,33.44
2023-05-08T00:22:43.493Z,33.44
2023-05-08T00:23:43.510Z,33.44
2023-05-08T00:24:43.476Z,33.39
2023-05-08T00:25:43.449Z,33.44
2023-05-08T00:26:43.589Z,33.44
2023-05-08T00:27:43.459Z,33.41
2023-05-08T00:28:43.508Z,33.43
2023-05-08T00:29:43.450Z,33.44
2023-05-08T00:30:43.463Z,33.47
2023-05-08T00:31:43.531Z,33.47
2023-05-08T00:32:43.514Z,33.45
2023-05-08T00:33:43.491Z,33.47
2023-05-08T00:34:43.463Z,33.48
2023-05-08T00:35:43.449Z,33.47
2023-05-08T00:36:43.491Z,33.51
2023-05-08T00:37:43.501Z,33.47
2023-05-08T00:38:43.529Z,33.48
2023-05-08T00:39:43.497Z,33.48
2023-05-08T00:40:43.533Z,33.47
2023-05-08T00:41:43.504Z,33.48
2023-05-08T00:42:43.521Z,33.51
2023-05-08T00:43:43.550Z,33.47
2023-05-08T00:44:43.614Z,33.46
2023-05-08T00:45:43.563Z,33.47
2023-05-08T00:46:43.648Z,33.48
2023-05-08T00:47:43.640Z,33.47
2023-05-08T00:48:43.578Z,33.50
2023-05-08T00:49:43.600Z,33.48
2023-05-08T00:50:43.578Z,33.49
2023-05-08T00:51:43.595Z,33.49
2023-05-08T00:52:43.607Z,33.48
2023-05-08T00:53:43.568Z,33.48
2023-05-08T00:54:43.569Z,33.48
2023-05-08T00:55:43.599Z,33.49
2023-05-08T00:56:43.598Z,33.54
2023-05-08T00:57:43.575Z,33.49
2023-05-08T00:58:43.610Z,33.49
2023-05-08T00:59:43.615Z,33.49
2023-05-08T01:00:43.616Z,33.49
2023-05-08T01:01:43.671Z,33.56
2023-05-08T01:02:43.634Z,33.52
2023-05-08T01:03:43.766Z,33.47
2023-05-08T01:04:43.651Z,33.49
2023-05-08T01:05:43.662Z,33.58
2023-05-08T01:06:43.674Z,33.52
2023-05-08T01:07:43.679Z,33.55
2023-05-08T01:08:43.652Z,33.54
2023-05-08T01:09:43.640Z,33.54
2023-05-08T01:10:43.667Z,33.52
2023-05-08T01:11:44.085Z,33.52
2023-05-08T01:12:43.729Z,33.51
2023-05-08T01:13:43.709Z,33.52
2023-05-08T01:14:43.693Z,33.55
2023-05-08T01:15:43.805Z,33.51
2023-05-08T01:16:43.744Z,33.51
2023-05-08T01:17:43.806Z,33.54
2023-05-08T01:18:43.736Z,33.51
2023-05-08T01:19:43.765Z,33.52
2023-05-08T01:20:43.768Z,33.57
2023-05-08T01:21:43.785Z,33.52
2023-05-08T01:22:43.772Z,33.55
2023-05-08T01:23:43.788Z,33.50
2023-05-08T01:24:43.796Z,33.58
2023-05-08T01:25:43.815Z,33.54
2023-05-08T01:26:43.831Z,33.52
2023-05-08T01:27:43.825Z,33.53
2023-05-08T01:28:43.810Z,33.56
2023-05-08T01:29:43.833Z,33.55
2023-05-08T01:30:43.903Z,33.55
2023-05-08T01:31:43.844Z,33.52
2023-05-08T01:32:43.865Z,33.57
2023-05-08T01:33:43.915Z,33.57
2023-05-08T01:34:43.875Z,33.53
2023-05-08T01:35:43.860Z,33.55
2023-05-08T01:36:43.866Z,33.55
2023-05-08T01:37:43.896Z,33.56
2023-05-08T01:38:43.888Z,33.57
2023-05-08T01:39:43.900Z,33.56
2023-05-08T01:40:43.885Z,33.57
2023-05-08T01:41:43.912Z,33.56
2023-05-08T01:42:43.906Z,33.60
2023-05-08T01:43:43.895Z,33.53
2023-05-08T01:44:43.937Z,33.57
2023-05-08T01:45:43.951Z,33.57
2023-05-08T01:46:43.991Z,33.56
2023-05-08T01:47:44.001Z,33.53
2023-05-08T01:48:43.989Z,33.59
2023-05-08T01:49:43.968Z,33.59
2023-05-08T01:50:43.987Z,33.56
2023-05-08T01:51:43.994Z,33.59
2023-05-08T01:52:44.021Z,33.60
2023-05-08T01:53:43.976Z,33.56
2023-05-08T01:54:44.018Z,33.60
2023-05-08T01:55:44.031Z,33.60
2023-05-08T01:56:44.060Z,33.62
2023-05-08T01:57:44.046Z,33.54
2023-05-08T01:58:44.032Z,33.56
2023-05-08T01:59:44.072Z,33.57
2023-05-08T02:00:44.113Z,33.59
2023-05-08T02:01:44.153Z,33.59
2023-05-08T02:02:44.188Z,33.56
2023-05-08T02:03:44.225Z,33.60
2023-05-08T02:04:44.152Z,33.61
2023-05-08T02:05:44.194Z,33.57
2023-05-08T02:06:44.194Z,33.59
2023-05-08T02:07:44.174Z,33.57
2023-05-08T02:08:44.219Z,33.57
2023-05-08T02:09:44.222Z,33.63
2023-05-08T02:10:44.244Z,33.64
2023-05-08T02:11:44.262Z,33.63
2023-05-08T02:12:44.302Z,33.68
2023-05-08T02:13:44.283Z,33.57
2023-05-08T02:14:44.324Z,33.63
2023-05-08T02:15:44.299Z,33.56
2023-05-08T02:16:44.418Z,33.59
2023-05-08T02:17:44.379Z,33.60
2023-05-08T02:18:44.305Z,33.61
2023-05-08T02:19:44.347Z,33.60
2023-05-08T02:20:44.373Z,33.64
2023-05-08T02:21:44.369Z,33.60
2023-05-08T02:22:44.375Z,33.65
2023-05-08T02:23:44.397Z,33.60
2023-05-08T02:24:44.392Z,33.64
2023-05-08T02:25:44.383Z,33.62
2023-05-08T02:26:44.438Z,33.62
2023-05-08T02:27:44.455Z,33.61
2023-05-08T02:28:44.458Z,33.58
2023-05-08T02:29:44.464Z,33.64
2023-05-08T02:30:44.471Z,33.68
2023-05-08T02:31:44.481Z,33.64
2023-05-08T02:32:44.580Z,33.62
2023-05-08T02:33:44.491Z,33.64
2023-05-08T02:34:54.924Z,33.64
2023-05-08T02:35:45.542Z,33.64
2023-05-08T02:36:44.506Z,33.64
2023-05-08T02:37:44.480Z,33.58
2023-05-08T02:38:44.504Z,33.65
2023-05-08T02:39:44.450Z,33.60
2023-05-08T02:40:44.504Z,33.64
2023-05-08T02:41:44.492Z,33.67
2023-05-08T02:42:44.453Z,33.64
2023-05-08T02:43:44.473Z,33.65
2023-05-08T02:44:44.461Z,33.64
2023-05-08T02:45:44.463Z,33.65
2023-05-08T02:46:44.606Z,33.65
2023-05-08T02:47:44.489Z,33.64
2023-05-08T02:48:44.425Z,33.60
2023-05-08T02:49:44.419Z,33.66
2023-05-08T02:50:44.403Z,33.66
2023-05-08T02:51:44.417Z,33.61
2023-05-08T02:52:44.358Z,33.64
2023-05-08T02:53:44.379Z,33.64
2023-05-08T02:54:44.402Z,33.61
2023-05-08T02:55:44.374Z,33.65
2023-05-08T02:56:44.643Z,33.64
2023-05-08T02:57:44.342Z,33.64
2023-05-08T02:58:44.357Z,33.67
2023-05-08T02:59:44.363Z,33.64
2023-05-08T03:00:44.315Z,33.65
2023-05-08T03:01:44.349Z,33.65
2023-05-08T03:02:44.399Z,33.61
2023-05-08T03:03:44.417Z,33.61
2023-05-08T03:04:44.298Z,33.68
2023-05-08T03:05:44.300Z,33.65
2023-05-08T03:06:44.311Z,33.68
2023-05-08T03:07:44.306Z,33.64
2023-05-08T03:08:44.312Z,33.64
2023-05-08T03:09:44.380Z,33.65
2023-05-08T03:10:44.347Z,33.68
2023-05-08T03:11:44.396Z,33.61
2023-05-08T03:12:44.440Z,33.68
2023-05-08T03:13:44.386Z,33.62
2023-05-08T03:14:44.428Z,33.66
2023-05-08T03:15:44.490Z,33.63
2023-05-08T03:16:44.471Z,33.69
2023-05-08T03:17:44.498Z,33.66
2023-05-08T03:18:44.495Z,33.67
2023-05-08T03:19:44.491Z,33.69
2023-05-08T03:20:44.504Z,33.65
2023-05-08T03:21:44.619Z,33.71
2023-05-08T03:22:44.530Z,33.65
2023-05-08T03:23:44.569Z,33.71
2023-05-08T03:24:44.589Z,33.72
2023-05-08T03:25:44.609Z,33.66
2023-05-08T03:26:44.597Z,33.66
2023-05-08T03:27:44.595Z,33.64
2023-05-08T03:28:44.607Z,33.67
2023-05-08T03:29:44.660Z,33.66
2023-05-08T03:30:44.676Z,33.71
2023-05-08T03:31:44.791Z,33.66
2023-05-08T03:32:44.706Z,33.68
2023-05-08T03:33:44.702Z,33.69
2023-05-08T03:34:44.694Z,33.68
2023-05-08T03:35:44.717Z,33.71
2023-05-08T03:36:44.765Z,33.67
2023-05-08T03:37:44.755Z,33.66
2023-05-08T03:38:44.773Z,33.65
2023-05-08T03:39:44.825Z,33.67
2023-05-08T03:40:44.841Z,33.71
2023-05-08T03:41:45.183Z,33.63
2023-05-08T03:42:44.868Z,33.69
2023-05-08T03:43:44.867Z,33.65
2023-05-08T03:44:44.881Z,33.70
2023-05-08T03:45:44.941Z,33.71
2023-05-08T03:46:44.951Z,33.74
2023-05-08T03:47:44.976Z,33.73
2023-05-08T03:48:44.940Z,33.68
2023-05-08T03:49:44.970Z,33.67
2023-05-08T03:50:45.029Z,33.71
2023-05-08T03:51:45.091Z,33.72
2023-05-08T03:52:45.054Z,33.71
2023-05-08T03:53:45.085Z,33.66
2023-05-08T03:54:45.065Z,33.72
2023-05-08T03:55:45.102Z,33.67
2023-05-08T03:56:45.105Z,33.74
2023-05-08T03:57:45.114Z,33.71
2023-05-08T03:58:45.128Z,33.69
2023-05-08T03:59:45.163Z,33.71
2023-05-08T04:00:45.195Z,33.77
2023-05-08T04:01:45.240Z,33.67
2023-05-08T04:02:45.187Z,33.70
2023-05-08T04:03:45.252Z,33.73
2023-05-08T04:04:45.234Z,33.71
2023-05-08T04:05:45.242Z,33.70
2023-05-08T04:06:50.141Z,33.73
2023-05-08T04:07:46.245Z,33.67
2023-05-08T04:08:45.253Z,33.69
2023-05-08T04:09:45.258Z,33.76
2023-05-08T04:10:45.269Z,33.71
2023-05-08T04:11:45.252Z,33.70
2023-05-08T04:12:45.237Z,33.69
2023-05-08T04:13:45.236Z,33.71
2023-05-08T04:14:45.243Z,33.73
2023-05-08T04:15:45.195Z,33.73
2023-05-08T04:16:45.252Z,33.76
2023-05-08T04:17:45.180Z,33.74
2023-05-08T04:18:45.162Z,33.74
2023-05-08T04:19:45.180Z,33.70
2023-05-08T04:20:46.229Z,33.71
2023-05-08T04:21:45.185Z,33.73
2023-05-08T04:22:45.162Z,33.78
2023-05-08T04:23:45.130Z,33.78
2023-05-08T04:24:45.098Z,33.77
2023-05-08T04:25:45.124Z,33.75
2023-05-08T04:26:45.110Z,33.74
2023-05-08T04:27:45.168Z,33.70
2023-05-08T04:28:45.104Z,33.74
2023-05-08T04:29:45.089Z,33.71
2023-05-08T04:30:45.077Z,33.73
2023-05-08T04:31:45.117Z,33.71
2023-05-08T04:32:46.754Z,33.73
2023-05-08T04:33:45.187Z,33.76
2023-05-08T04:34:45.177Z,33.77
2023-05-08T04:35:45.204Z,33.74
2023-05-08T04:36:45.211Z,33.76
2023-05-08T04:37:45.265Z,33.71
2023-05-08T04:38:45.265Z,33.74
2023-05-08T04:39:45.262Z,33.78
2023-05-08T04:40:45.276Z,33.71
2023-05-08T04:41:45.399Z,33.73
2023-05-08T04:42:45.328Z,33.70
2023-05-08T04:43:45.367Z,33.78
2023-05-08T04:44:45.362Z,33.75
2023-05-08T04:45:45.455Z,33.75
2023-05-08T04:46:45.416Z,33.75
2023-05-08T04:47:45.576Z,33.75
2023-05-08T04:48:45.474Z,33.80
2023-05-08T04:49:45.558Z,33.77
2023-05-08T04:50:45.507Z,33.76
2023-05-08T04:51:45.561Z,33.76
2023-05-08T04:52:45.569Z,33.80
2023-05-08T04:53:45.607Z,34.06
2023-05-08T04:54:45.624Z,34.29
2023-05-08T04:55:45.664Z,34.64
2023-05-08T04:56:45.672Z,34.81
2023-05-08T04:57:46.151Z,35.14
2023-05-08T04:58:45.751Z,35.41
2023-05-08T04:59:45.758Z,35.60
2023-05-08T05:00:45.782Z,35.69
2023-05-08T05:01:45.881Z,35.88
2023-05-08T05:02:45.874Z,36.01
2023-05-08T05:03:45.915Z,36.25
2023-05-08T05:04:45.968Z,36.38
2023-05-08T05:05:46.021Z,36.54
2023-05-08T05:06:46.062Z,36.68
2023-05-08T05:07:46.095Z,36.85
2023-05-08T05:08:46.135Z,37.07
2023-05-08T05:09:46.153Z,37.07
2023-05-08T05:10:46.259Z,37.25
2023-05-08T05:11:46.298Z,37.27
2023-05-08T05:12:46.762Z,37.44
2023-05-08T05:13:46.443Z,37.58
2023-05-08T05:14:46.464Z,37.68
2023-05-08T05:15:46.646Z,37.72
2023-05-08T05:16:46.650Z,37.80
2023-05-08T05:17:46.694Z,38.32
2023-05-08T05:18:46.712Z,40.07
2023-05-08T05:19:46.734Z,38.84
2023-05-08T05:20:46.794Z,41.94
2023-05-08T05:21:46.896Z,40.61
2023-05-08T05:22:46.930Z,41.21
2023-05-08T05:23:46.933Z,40.36
2023-05-08T05:24:47.034Z,40.98
2023-05-08T05:25:47.061Z,41.93
2023-05-08T05:26:47.150Z,41.80
2023-05-08T05:27:47.161Z,43.86
2023-05-08T05:28:47.211Z,42.28
2023-05-08T05:29:47.233Z,44.47
2023-05-08T05:30:47.294Z,44.11
2023-05-08T05:31:47.340Z,43.31
2023-05-08T05:32:47.475Z,43.48
2023-05-08T05:33:47.458Z,43.53
2023-05-08T05:34:47.476Z,43.76
2023-05-08T05:35:47.524Z,44.26
2023-05-08T05:36:47.572Z,44.13
2023-05-08T05:37:47.624Z,44.24
2023-05-08T05:38:47.641Z,44.28
2023-05-08T05:39:47.714Z,44.20
2023-05-08T05:40:47.752Z,44.20
2023-05-08T05:41:47.809Z,44.09
2023-05-08T05:42:47.878Z,44.04
2023-05-08T05:43:47.913Z,44.04
2023-05-08T05:44:47.992Z,43.88
2023-05-08T05:45:48.091Z,44.79
2023-05-08T05:46:48.152Z,44.68
2023-05-08T05:47:48.187Z,45.00
2023-05-08T05:48:48.230Z,44.42
2023-05-08T05:49:48.329Z,44.41
2023-05-08T05:50:48.352Z,44.35
2023-05-08T05:51:48.420Z,44.46
2023-05-08T05:52:48.502Z,44.62
2023-05-08T05:53:48.487Z,44.47
2023-05-08T05:54:48.942Z,44.27
2023-05-08T05:55:48.585Z,44.37
2023-05-08T05:56:48.623Z,44.44
2023-05-08T05:57:48.697Z,44.34
2023-05-08T05:58:48.736Z,44.24
2023-05-08T05:59:48.813Z,44.13
2023-05-08T06:00:48.836Z,44.00
2023-05-08T06:01:48.892Z,43.95
2023-05-08T06:02:49.158Z,43.92
2023-05-08T06:03:49.074Z,43.87
2023-05-08T06:04:48.984Z,43.77
2023-05-08T06:05:49.028Z,43.64
2023-05-08T06:06:49.115Z,43.59
2023-05-08T06:07:49.180Z,43.56
2023-05-08T06:08:49.218Z,43.52
2023-05-08T06:09:49.311Z,43.45
2023-05-08T06:10:49.315Z,43.37
2023-05-08T06:11:49.374Z,43.26
2023-05-08T06:12:49.471Z,43.23
2023-05-08T06:13:50.713Z,43.15
2023-05-08T06:14:49.567Z,43.13
2023-05-08T06:15:49.608Z,43.07
2023-05-08T06:16:49.680Z,43.01
2023-05-08T06:17:49.739Z,42.96
2023-05-08T06:18:49.782Z,42.84
2023-05-08T06:19:49.834Z,42.81
2023-05-08T06:20:49.871Z,42.77
2023-05-08T06:21:49.950Z,42.74
2023-05-08T06:22:50.175Z,42.70
2023-05-08T06:23:50.067Z,42.67
2023-05-08T06:24:50.139Z,42.61
2023-05-08T06:25:50.217Z,42.56
2023-05-08T06:26:50.224Z,42.53
2023-05-08T06:27:50.332Z,42.45
2023-05-08T06:28:50.343Z,42.49
2023-05-08T06:29:50.411Z,42.47
2023-05-08T06:30:50.474Z,42.40
2023-05-08T06:31:50.516Z,42.35
2023-05-08T06:32:50.746Z,42.37
2023-05-08T06:33:50.635Z,42.32
2023-05-08T06:34:50.683Z,42.29
2023-05-08T06:35:50.739Z,42.28
2023-05-08T06:36:50.819Z,42.24
2023-05-08T06:37:51.234Z,42.22
2023-05-08T06:38:50.900Z,42.21
2023-05-08T06:40:00.330Z,42.20
2023-05-08T06:40:51.938Z,42.14
2023-05-08T06:41:50.916Z,42.17
2023-05-08T06:42:51.357Z,42.13
2023-05-08T06:43:50.893Z,42.14
2023-05-08T06:44:50.894Z,42.07
2023-05-08T06:45:50.976Z,42.06
2023-05-08T06:46:51.030Z,42.05
2023-05-08T06:47:50.913Z,42.04
2023-05-08T06:48:50.902Z,41.99
2023-05-08T06:49:50.880Z,41.98
2023-05-08T06:50:50.884Z,41.98
2023-05-08T06:51:50.958Z,41.93
2023-05-08T06:52:50.986Z,42.68
2023-05-08T06:53:51.088Z,43.21
2023-05-08T06:54:51.104Z,43.56
2023-05-08T06:55:51.202Z,44.42
2023-05-08T06:56:51.238Z,44.42
2023-05-08T06:57:51.716Z,44.84
2023-05-08T06:59:04.550Z,44.94
2023-05-08T06:59:52.310Z,44.96
2023-05-08T07:00:51.255Z,45.20
2023-05-08T07:01:51.256Z,45.64
2023-05-08T07:02:51.788Z,45.96
2023-05-08T07:03:51.212Z,46.03
2023-05-08T07:04:51.228Z,46.14
2023-05-08T07:05:51.208Z,46.25
2023-05-08T07:06:51.197Z,46.48
2023-05-08T07:07:51.243Z,46.51
2023-05-08T07:08:51.198Z,46.55
2023-05-08T07:09:52.239Z,46.62
2023-05-08T07:10:51.264Z,46.61
2023-05-08T07:11:51.186Z,46.68
2023-05-08T07:12:51.235Z,46.70
2023-05-08T07:13:51.178Z,46.57
2023-05-08T07:14:51.206Z,46.67
2023-05-08T07:15:51.222Z,46.57
2023-05-08T07:16:51.210Z,46.42
2023-05-08T07:17:51.273Z,46.55
2023-05-08T07:18:51.213Z,46.50
2023-05-08T07:19:51.201Z,46.41
2023-05-08T07:20:51.152Z,46.53
2023-05-08T07:21:51.173Z,46.30
2023-05-08T07:22:51.244Z,46.21
2023-05-08T07:23:51.155Z,46.23
2023-05-08T07:24:51.197Z,46.09
2023-05-08T07:25:51.263Z,46.50
2023-05-08T07:26:51.325Z,46.49
2023-05-08T07:27:51.402Z,46.33
2023-05-08T07:28:51.330Z,46.18
2023-05-08T07:29:51.321Z,46.35
2023-05-08T07:30:51.337Z,46.36
2023-05-08T07:31:51.566Z,46.15
2023-05-08T07:32:51.510Z,46.38
2023-05-08T07:33:51.405Z,46.20
2023-05-08T07:34:51.434Z,46.13
2023-05-08T07:35:51.431Z,46.29
2023-05-08T07:36:51.473Z,46.11
2023-05-08T07:37:51.469Z,45.83
2023-05-08T07:38:51.496Z,46.02
2023-05-08T07:39:51.494Z,45.84
2023-05-08T07:40:51.556Z,46.08
2023-05-08T07:41:51.658Z,46.09
2023-05-08T07:42:51.691Z,46.00
2023-05-08T07:43:51.679Z,45.98
2023-05-08T07:44:54.797Z,45.92
2023-05-08T07:45:51.730Z,45.62
2023-05-08T07:46:51.755Z,45.91
2023-05-08T07:47:51.744Z,46.02
2023-05-08T07:48:51.727Z,45.61
2023-05-08T07:49:51.738Z,45.76
2023-05-08T07:50:51.660Z,45.77
2023-05-08T07:51:51.677Z,45.76
2023-05-08T07:52:51.671Z,46.08
2023-05-08T07:53:51.634Z,46.10
2023-05-08T07:54:51.658Z,45.95
2023-05-08T07:55:51.631Z,45.22
2023-05-08T07:56:51.670Z,43.36
2023-05-08T07:57:51.627Z,43.94
2023-05-08T07:58:51.622Z,42.82
2023-05-08T07:59:51.639Z,41.77
2023-05-08T08:00:51.630Z,41.74
2023-05-08T08:01:51.664Z,41.89
2023-05-08T08:02:51.848Z,41.86
2023-05-08T08:03:51.685Z,42.65
2023-05-08T08:04:51.561Z,42.75
2023-05-08T08:05:51.575Z,43.08
2023-05-08T08:06:51.562Z,43.31
2023-05-08T08:07:51.585Z,43.32
2023-05-08T08:08:51.553Z,43.47
2023-05-08T08:09:51.529Z,43.64
2023-05-08T08:10:52.235Z,43.85
2023-05-08T08:11:51.575Z,43.95
2023-05-08T08:12:51.824Z,44.04
2023-05-08T08:13:51.483Z,44.25
2023-05-08T08:14:51.492Z,44.38
2023-05-08T08:15:51.550Z,44.45
2023-05-08T08:16:51.556Z,44.68
2023-05-08T08:17:51.796Z,44.70
2023-05-08T08:18:51.580Z,44.81
2023-05-08T08:19:51.489Z,44.78
2023-05-08T08:20:51.436Z,44.67
2023-05-08T08:21:51.511Z,44.74
2023-05-08T08:22:51.743Z,44.71
2023-05-08T08:23:51.451Z,44.71
2023-05-08T08:24:54.075Z,44.24
2023-05-08T08:25:51.468Z,44.53
2023-05-08T08:26:51.465Z,44.54
2023-05-08T08:27:51.464Z,44.60
2023-05-08T08:28:51.429Z,44.68
2023-05-08T08:29:58.508Z,44.69
2023-05-08T08:30:52.473Z,44.77
2023-05-08T08:31:51.387Z,44.41
2023-05-08T08:32:51.406Z,44.96
2023-05-08T08:33:51.370Z,44.86
2023-05-08T08:34:51.475Z,44.90
2023-05-08T08:35:51.359Z,45.02
2023-05-08T08:36:51.348Z,45.01
2023-05-08T08:37:51.362Z,45.00
2023-05-08T08:38:51.364Z,45.02
2023-05-08T08:39:51.300Z,45.07
2023-05-08T08:40:51.356Z,45.15
2023-05-08T08:41:51.313Z,45.18
2023-05-08T08:42:51.334Z,45.13
2023-05-08T08:43:51.298Z,44.90
2023-05-08T08:44:51.296Z,44.79
2023-05-08T08:45:51.351Z,45.05
2023-05-08T08:46:51.386Z,45.23
2023-05-08T08:47:51.317Z,44.87
2023-05-08T08:48:51.272Z,44.82
2023-05-08T08:49:51.263Z,44.89
2023-05-08T08:50:51.333Z,44.89
2023-05-08T08:51:51.211Z,44.86
2023-05-08T08:52:51.228Z,44.64
2023-05-08T08:53:51.230Z,45.04
2023-05-08T08:54:51.253Z,45.32
2023-05-08T08:55:51.210Z,44.76
2023-05-08T08:56:51.247Z,44.92
2023-05-08T08:57:51.188Z,44.66
2023-05-08T08:58:51.162Z,44.70
2023-05-08T08:59:51.198Z,44.20
2023-05-08T09:00:51.204Z,44.59
2023-05-08T09:01:51.255Z,44.44
2023-05-08T09:02:51.436Z,44.57
2023-05-08T09:03:51.395Z,44.48
2023-05-08T09:04:51.285Z,43.26
2023-05-08T09:05:51.280Z,43.40
2023-05-08T09:06:51.485Z,43.67
2023-05-08T09:07:51.426Z,43.53
2023-05-08T09:08:51.438Z,43.47
2023-05-08T09:09:51.501Z,43.45
2023-05-08T09:10:51.490Z,43.22
2023-05-08T09:11:51.520Z,43.35
2023-05-08T09:12:51.590Z,43.37
2023-05-08T09:13:51.556Z,43.35
2023-05-08T09:14:51.597Z,42.99
2023-05-08T09:15:51.615Z,43.31
2023-05-08T09:16:51.653Z,43.11
2023-05-08T09:17:51.672Z,43.15
2023-05-08T09:18:51.689Z,43.37
2023-05-08T09:19:51.728Z,43.53
2023-05-08T09:20:51.703Z,43.57
2023-05-08T09:21:51.715Z,43.58
2023-05-08T09:22:51.829Z,43.67
2023-05-08T09:23:51.757Z,43.63
2023-05-08T09:24:51.754Z,43.67
2023-05-08T09:25:51.794Z,43.80
2023-05-08T09:26:51.804Z,43.74
2023-05-08T09:27:52.238Z,43.88
2023-05-08T09:28:51.830Z,43.21
2023-05-08T09:29:51.834Z,43.62
2023-05-08T09:30:51.852Z,43.78
2023-05-08T09:31:51.919Z,43.92
2023-05-08T09:32:51.949Z,43.95
2023-05-08T09:33:51.895Z,44.71
2023-05-08T09:34:51.872Z,43.86
2023-05-08T09:35:51.857Z,44.04
2023-05-08T09:36:51.895Z,44.00
2023-05-08T09:37:51.900Z,44.02
2023-05-08T09:38:51.986Z,44.24
2023-05-08T09:39:51.918Z,44.31
2023-05-08T09:40:51.922Z,44.59
2023-05-08T09:41:51.922Z,44.74
2023-05-08T09:42:51.921Z,44.83
2023-05-08T09:43:52.275Z,45.02
2023-05-08T09:44:52.051Z,45.24
2023-05-08T09:45:52.124Z,45.23
2023-05-08T09:46:52.048Z,45.46
2023-05-08T09:47:52.136Z,45.74
2023-05-08T09:48:52.169Z,46.43
2023-05-08T09:49:52.189Z,45.51
2023-05-08T09:50:52.242Z,44.15
2023-05-08T09:51:52.327Z,44.62
2023-05-08T09:52:52.395Z,44.20
2023-05-08T09:53:52.766Z,44.45
2023-05-08T09:54:52.470Z,44.41
2023-05-08T09:55:52.435Z,43.53
2023-05-08T09:56:52.456Z,44.05
2023-05-08T09:57:52.550Z,44.09
2023-05-08T09:58:52.569Z,43.99
2023-05-08T09:59:52.605Z,43.94
2023-05-08T10:00:52.682Z,44.04
2023-05-08T10:01:52.590Z,43.85
2023-05-08T10:02:52.646Z,44.04
2023-05-08T10:03:52.813Z,43.83
2023-05-08T10:04:52.659Z,43.74
2023-05-08T10:05:52.617Z,43.74
2023-05-08T10:06:54.037Z,43.73
2023-05-08T10:07:52.631Z,43.63
2023-05-08T10:08:52.633Z,43.59
2023-05-08T10:09:52.653Z,43.54
2023-05-08T10:10:52.702Z,43.60
2023-05-08T10:11:52.581Z,43.53
2023-05-08T10:12:52.607Z,43.54
2023-05-08T10:13:52.599Z,43.48
2023-05-08T10:14:59.558Z,43.57
2023-05-08T10:15:52.576Z,43.49
2023-05-08T10:16:52.642Z,43.37
2023-05-08T10:17:52.596Z,43.35
2023-05-08T10:18:52.574Z,43.34
2023-05-08T10:19:52.537Z,43.30
2023-05-08T10:20:52.550Z,43.26
2023-05-08T10:21:52.518Z,43.25
2023-05-08T10:22:52.518Z,43.28
2023-05-08T10:23:52.509Z,43.22
2023-05-08T10:24:52.526Z,43.18
2023-05-08T10:25:54.797Z,43.15
2023-05-08T10:27:05.689Z,43.21
2023-05-08T10:27:53.609Z,43.27
2023-05-08T10:28:52.572Z,43.16
2023-05-08T10:29:52.646Z,43.16
2023-05-08T10:30:53.578Z,42.97
2023-05-08T10:31:52.575Z,43.02
2023-05-08T10:32:52.576Z,43.01
2023-05-08T10:33:52.558Z,42.97
2023-05-08T10:34:52.536Z,42.88
2023-05-08T10:35:52.524Z,42.80
2023-05-08T10:36:54.220Z,42.80
2023-05-08T10:37:52.521Z,42.82
2023-05-08T10:38:52.791Z,42.83
2023-05-08T10:39:52.575Z,42.78
2023-05-08T10:40:52.589Z,42.78
2023-05-08T10:41:52.621Z,42.74
2023-05-08T10:42:52.813Z,43.05
2023-05-08T10:43:52.768Z,42.36
2023-05-08T10:44:52.783Z,42.10
2023-05-08T10:45:52.877Z,41.97
2023-05-08T10:46:52.865Z,41.76
2023-05-08T10:47:52.995Z,41.68
2023-05-08T10:48:52.936Z,41.44
2023-05-08T10:49:52.971Z,41.43
2023-05-08T10:50:53.012Z,41.16
2023-05-08T10:51:53.022Z,41.03
2023-05-08T10:52:53.034Z,40.96
2023-05-08T10:53:53.291Z,40.86
2023-05-08T10:54:53.040Z,40.79
2023-05-08T10:55:53.060Z,40.73
2023-05-08T10:56:53.062Z,40.77
2023-05-08T10:57:53.045Z,40.67
2023-05-08T10:58:53.068Z,40.46
2023-05-08T10:59:53.158Z,40.51
2023-05-08T11:00:53.168Z,40.44
2023-05-08T11:01:53.350Z,40.37
2023-05-08T11:02:53.294Z,40.36
2023-05-08T11:03:53.398Z,40.31
2023-05-08T11:04:53.257Z,40.30
2023-05-08T11:05:53.265Z,40.23
2023-05-08T11:06:53.347Z,40.22
2023-05-08T11:07:53.316Z,40.11
2023-05-08T11:08:53.345Z,40.07
2023-05-08T11:09:53.366Z,40.01
2023-05-08T11:10:53.370Z,39.97
2023-05-08T11:11:53.370Z,39.97
2023-05-08T11:12:53.493Z,39.96
2023-05-08T11:13:53.490Z,39.93
2023-05-08T11:14:53.485Z,39.85
2023-05-08T11:15:53.531Z,39.83
2023-05-08T11:16:53.505Z,39.84
2023-05-08T11:17:53.542Z,39.77
2023-05-08T11:18:53.823Z,39.68
2023-05-08T11:19:53.633Z,39.68
2023-05-08T11:20:53.617Z,39.61
2023-05-08T11:21:53.632Z,39.54
2023-05-08T11:22:53.693Z,39.54
2023-05-08T11:23:53.795Z,39.42
2023-05-08T11:24:53.729Z,39.37
2023-05-08T11:25:53.811Z,39.35
2023-05-08T11:26:53.804Z,39.32
2023-05-08T11:27:53.830Z,39.31
2023-05-08T11:28:54.336Z,39.30
2023-05-08T11:29:53.903Z,39.21
2023-05-08T11:30:53.948Z,39.20
2023-05-08T11:31:54.027Z,39.16
2023-05-08T11:32:54.048Z,39.17
2023-05-08T11:33:54.067Z,39.14
2023-05-08T11:34:54.071Z,39.14
2023-05-08T11:35:54.172Z,39.14
2023-05-08T11:36:54.176Z,39.16
2023-05-08T11:37:54.228Z,39.21
2023-05-08T11:38:56.307Z,39.10
2023-05-08T11:39:54.306Z,39.13
2023-05-08T11:40:54.428Z,39.10
2023-05-08T11:41:54.360Z,39.10
2023-05-08T11:42:54.408Z,39.10
2023-05-08T11:43:54.454Z,39.13
2023-05-08T11:44:54.498Z,39.13
2023-05-08T11:45:54.548Z,39.09
2023-05-08T11:46:54.651Z,39.10
2023-05-08T11:47:54.715Z,39.06
2023-05-08T11:48:54.711Z,39.09
2023-05-08T11:49:54.769Z,39.04
2023-05-08T11:50:54.816Z,39.06
2023-05-08T11:51:54.865Z,39.09
2023-05-08T11:52:54.891Z,39.06
2023-05-08T11:53:55.330Z,39.07
2023-05-08T11:54:54.922Z,39.05
2023-05-08T11:55:55.023Z,39.03
2023-05-08T11:56:55.021Z,39.07
2023-05-08T11:57:55.043Z,39.36
2023-05-08T11:58:55.130Z,39.19
2023-05-08T11:59:55.133Z,39.15
2023-05-08T12:00:55.310Z,39.17
2023-05-08T12:02:06.834Z,39.08
2023-05-08T12:02:56.285Z,39.00
2023-05-08T12:03:55.369Z,38.98
2023-05-08T12:04:55.222Z,38.93
2023-05-08T12:05:55.247Z,38.86
2023-05-08T12:06:55.181Z,38.84
2023-05-08T12:07:55.193Z,38.82
2023-05-08T12:08:55.205Z,38.73
2023-05-08T12:09:55.191Z,38.67
2023-05-08T12:10:55.176Z,38.63
2023-05-08T12:11:55.179Z,38.63
2023-05-08T12:12:55.221Z,38.64
2023-05-08T12:13:55.262Z,38.59
2023-05-08T12:14:55.285Z,38.60
2023-05-08T12:15:55.322Z,38.54
2023-05-08T12:16:55.390Z,38.50
2023-05-08T12:17:55.440Z,38.51
2023-05-08T12:18:55.474Z,38.49
2023-05-08T12:19:55.481Z,38.48
2023-05-08T12:20:55.530Z,38.44
2023-05-08T12:21:55.555Z,38.40
2023-05-08T12:22:55.605Z,38.44
2023-05-08T12:23:55.680Z,38.43
2023-05-08T12:24:55.700Z,38.41
2023-05-08T12:25:55.779Z,38.37
2023-05-08T12:26:55.821Z,38.38
2023-05-08T12:27:55.807Z,38.26
2023-05-08T12:28:55.853Z,38.22
2023-05-08T12:29:55.861Z,38.18
2023-05-08T12:30:55.973Z,38.21
2023-05-08T12:31:56.001Z,38.18
2023-05-08T12:32:56.041Z,38.14
2023-05-08T12:33:56.029Z,38.08
2023-05-08T12:34:56.060Z,38.08
2023-05-08T12:35:56.124Z,38.07
2023-05-08T12:36:56.136Z,38.11
2023-05-08T12:37:56.187Z,38.04
2023-05-08T12:38:56.257Z,38.05
2023-05-08T12:39:56.264Z,38.00
2023-05-08T12:40:56.354Z,38.01
2023-05-08T12:41:56.712Z,37.96
2023-05-08T12:42:56.431Z,37.88
2023-05-08T12:43:56.425Z,37.82
2023-05-08T12:44:56.499Z,37.83
2023-05-08T12:45:56.538Z,37.78
2023-05-08T12:46:56.684Z,37.79
2023-05-08T12:47:56.662Z,37.74
2023-05-08T12:48:56.662Z,37.73
2023-05-08T12:49:56.682Z,37.70
2023-05-08T12:50:56.806Z,37.63
2023-05-08T12:51:56.767Z,37.60
2023-05-08T12:52:56.807Z,37.58